Time;durP1;ratioP1;P1;durP2;ratioP2;P2;SDS_P1;SDS_P2;PMS_P1;PMS_P2;Temp;Humidity;BMP_temperature;BMP_pressure;BME280_temperature;BME280_humidity;BME280_pressure;Samples;Min_cycle;Max_cycle;Signal;HPM_P1;HPM_P2
2023/08/30 00:01:40;;;;;;;8.65;7.18;;;;;;;13.88;82.84;100646.66;3602947;39;20082;-64
2023/08/30 00:04:06;;;;;;;8.07;7.18;;;;;;;13.84;82.26;100645.19;3603011;39;20058;-64
2023/08/30 00:06:31;;;;;;;9.25;7.53;;;;;;;13.81;82.46;100640.88;3595329;39;20063;-64
2023/08/30 00:08:58;;;;;;;8.25;7.45;;;;;;;13.82;83.17;100652.53;3606041;39;20062;-64
2023/08/30 00:11:24;;;;;;;8.38;7.47;;;;;;;13.76;82.93;100637.66;3604214;39;20050;-65
2023/08/30 00:13:49;;;;;;;10.38;7.60;;;;;;;13.78;82.84;100645.66;3605982;39;20067;-64
2023/08/30 00:16:16;;;;;;;10.55;8.20;;;;;;;13.75;83.02;100643.22;3606560;39;20058;-64
2023/08/30 00:18:44;;;;;;;9.00;7.75;;;;;;;13.71;83.19;100642.59;3604289;39;20099;-65
2023/08/30 00:21:10;;;;;;;8.85;7.35;;;;;;;13.69;83.51;100648.09;3605508;39;20047;-64
2023/08/30 00:23:35;;;;;;;9.38;7.70;;;;;;;13.69;83.63;100634.59;3604248;39;20063;-65
2023/08/30 00:26:01;;;;;;;9.95;8.00;;;;;;;13.69;84.46;100631.88;3604866;39;20066;-64
2023/08/30 00:28:26;;;;;;;8.38;7.47;;;;;;;13.70;83.90;100627.34;3602990;39;20063;-65
2023/08/30 00:30:55;;;;;;;8.85;7.97;;;;;;;13.70;83.37;100646.25;3606151;39;20058;-65
2023/08/30 00:33:21;;;;;;;8.45;7.35;;;;;;;13.68;83.62;100629.31;3603102;39;20095;-64
2023/08/30 00:35:58;;;;;;;9.80;7.30;;;;;;;13.68;83.30;100630.19;3602714;39;20458;-64
2023/08/30 00:38:27;;;;;;;9.93;7.38;;;;;;;13.70;83.11;100636.34;3603023;39;20059;-65
2023/08/30 00:40:52;;;;;;;8.90;7.55;;;;;;;13.69;83.41;100623.78;3599846;39;20506;-64
2023/08/30 00:43:19;;;;;;;8.95;7.30;;;;;;;13.70;83.03;100617.41;3601494;39;20059;-64
2023/08/30 00:45:47;;;;;;;7.85;6.82;;;;;;;13.46;83.17;100584.22;3607113;39;20059;-62
2023/08/30 00:48:15;;;;;;;7.68;6.82;;;;;;;13.64;82.82;100611.63;3605920;39;20063;-66
2023/08/30 00:50:42;;;;;;;8.77;7.60;;;;;;;13.45;82.34;100574.41;3601875;39;20087;-65
2023/08/30 00:53:10;;;;;;;9.93;7.60;;;;;;;13.63;82.58;100599.94;3603062;39;20051;-65
2023/08/30 00:55:38;;;;;;;7.78;6.97;;;;;;;13.61;82.08;100601.94;3605220;39;20412;-65
2023/08/30 00:58:05;;;;;;;9.77;7.75;;;;;;;13.39;82.46;100564.09;3606272;39;20054;-65
2023/08/30 01:00:32;;;;;;;7.93;7.05;;;;;;;13.58;82.60;100599.47;3605574;39;20386;-65
2023/08/30 01:02:59;;;;;;;10.02;7.47;;;;;;;13.24;82.26;100545.38;3604022;39;20158;-65
2023/08/30 01:05:24;;;;;;;8.70;7.10;;;;;;;13.51;82.69;100600.94;3602577;39;20081;-65
2023/08/30 01:07:51;;;;;;;10.43;7.55;;;;;;;13.48;82.06;100606.56;3607274;39;20080;-65
2023/08/30 01:10:27;;;;;;;8.32;6.80;;;;;;;13.43;82.76;100601.50;3598075;39;20836;-65
2023/08/30 01:13:08;;;;;;;9.38;7.80;;;;;;;13.39;82.42;100599.19;3603246;39;20051;-65
2023/08/30 01:15:39;;;;;;;11.50;8.40;;;;;;;13.37;82.66;100598.44;3604184;39;20058;-65
2023/08/30 01:18:09;;;;;;;9.20;7.70;;;;;;;13.34;82.68;100599.53;3605586;39;20354;-65
2023/08/30 01:20:39;;;;;;;13.32;7.82;;;;;;;13.32;82.61;100596.09;3604818;39;20047;-64
2023/08/30 01:23:17;;;;;;;9.35;7.20;;;;;;;13.30;82.61;100597.19;3604806;39;20048;-65
2023/08/30 01:26:24;;;;;;;9.55;8.35;;;;;;;13.23;83.68;100596.78;3607840;39;20047;-65
2023/08/30 01:28:54;;;;;;;10.75;9.70;;;;;;;13.23;84.23;100592.22;3603263;39;20047;-65
2023/08/30 01:31:22;;;;;;;9.02;8.20;;;;;;;13.14;83.97;100576.72;3600213;39;20054;-65
2023/08/30 01:33:50;;;;;;;13.00;8.40;;;;;;;12.70;84.14;100505.44;3604578;39;20316;-66
2023/08/30 01:36:17;;;;;;;10.00;7.68;;;;;;;13.19;84.01;100590.75;3602958;39;20047;-65
2023/08/30 01:38:46;;;;;;;9.80;8.80;;;;;;;13.16;83.92;100588.28;3604010;39;20053;-65
2023/08/30 01:41:12;;;;;;;10.23;8.50;;;;;;;13.07;83.94;100575.50;3601988;39;20055;-64
2023/08/30 01:43:39;;;;;;;8.77;7.63;;;;;;;13.13;84.23;100587.63;3604015;39;20131;-64
2023/08/30 01:46:07;;;;;;;10.73;9.02;;;;;;;13.11;84.00;100582.38;3602696;39;20116;-64
2023/08/30 01:48:35;;;;;;;10.13;8.45;;;;;;;13.09;84.23;100587.00;3602211;39;20051;-64
2023/08/30 01:51:02;;;;;;;9.57;7.95;;;;;;;13.08;84.02;100582.59;3604132;39;20046;-64
2023/08/30 01:53:29;;;;;;;9.32;7.55;;;;;;;13.08;84.01;100582.59;3601942;39;20055;-64
2023/08/30 01:55:54;;;;;;;10.82;8.13;;;;;;;13.06;83.94;100589.94;3602058;39;20386;-63
2023/08/30 01:58:20;;;;;;;10.10;8.20;;;;;;;13.05;84.10;100576.56;3606294;39;20136;-64
2023/08/30 02:00:46;;;;;;;8.85;7.13;;;;;;;13.02;84.16;100577.66;3606456;39;20057;-64
2023/08/30 02:03:14;;;;;;;7.78;6.97;;;;;;;13.02;84.44;100583.06;3605535;39;20058;-64
2023/08/30 02:06:04;;;;;;;8.18;7.05;;;;;;;13.00;84.25;100582.31;3606276;39;20051;-64
2023/08/30 02:08:49;;;;;;;8.15;7.03;;;;;;;12.97;85.26;100582.53;3604926;39;20879;-64
2023/08/30 02:11:24;;;;;;;8.18;7.32;;;;;;;12.97;85.15;100596.03;3602744;39;20409;-64
2023/08/30 02:13:54;;;;;;;7.97;7.10;;;;;;;12.94;85.53;100585.47;3602637;39;20311;-64
2023/08/30 02:16:25;;;;;;;8.23;6.80;;;;;;;12.93;85.50;100571.13;3604160;39;20118;-64
2023/08/30 02:18:51;;;;;;;8.95;6.90;;;;;;;12.97;85.83;100591.53;3606226;39;20057;-64
2023/08/30 02:21:16;;;;;;;8.40;6.82;;;;;;;12.99;85.54;100567.09;3603510;39;20074;-65
2023/08/30 02:23:42;;;;;;;10.45;7.15;;;;;;;13.01;86.21;100574.13;3608287;39;20385;-64
2023/08/30 02:26:08;;;;;;;8.25;7.13;;;;;;;12.56;86.76;100486.75;3605188;39;20050;-64
2023/08/30 02:28:34;;;;;;;9.30;7.53;;;;;;;13.08;86.53;100570.94;3606193;39;20070;-65
2023/08/30 02:30:59;;;;;;;8.48;7.60;;;;;;;13.12;87.25;100562.47;3606093;39;20061;-65
2023/08/30 02:33:25;;;;;;;8.65;7.85;;;;;;;13.17;87.02;100549.50;3601275;39;20073;-65
2023/08/30 02:35:51;;;;;;;9.45;7.78;;;;;;;13.24;87.24;100556.19;3603228;39;20067;-64
2023/08/30 02:38:17;;;;;;;9.23;8.20;;;;;;;13.29;87.33;100552.25;3602524;39;20061;-64
2023/08/30 02:40:43;;;;;;;9.80;8.00;;;;;;;13.36;87.34;100548.13;3602995;39;20101;-64
2023/08/30 02:43:08;;;;;;;9.63;8.50;;;;;;;13.40;86.71;100549.59;3603818;39;20062;-65
2023/08/30 02:45:34;;;;;;;9.77;7.78;;;;;;;13.46;86.57;100549.97;3603868;39;20056;-65
2023/08/30 02:48:00;;;;;;;10.57;8.65;;;;;;;13.52;86.44;100551.34;3603448;39;20374;-65
2023/08/30 02:50:25;;;;;;;10.55;8.45;;;;;;;13.53;86.06;100538.69;3601702;39;20074;-64
2023/08/30 02:52:52;;;;;;;10.98;8.43;;;;;;;13.65;86.60;100548.53;3601933;39;20062;-65
2023/08/30 02:55:17;;;;;;;9.27;8.15;;;;;;;13.68;85.96;100546.44;3603730;39;20310;-65
2023/08/30 02:57:43;;;;;;;9.95;8.55;;;;;;;13.76;86.37;100539.56;3605684;39;20066;-65
2023/08/30 03:00:09;;;;;;;11.23;8.57;;;;;;;13.78;86.10;100537.59;3603380;39;20050;-64
2023/08/30 03:02:35;;;;;;;11.32;8.27;;;;;;;13.79;86.04;100531.22;3604074;39;20355;-64
2023/08/30 03:05:01;;;;;;;12.25;8.57;;;;;;;13.86;85.64;100535.13;3606055;39;20107;-65
2023/08/30 03:07:29;;;;;;;10.40;9.00;;;;;;;13.88;85.36;100528.63;3603139;39;20070;-64
2023/08/30 03:09:55;;;;;;;11.05;8.73;;;;;;;13.92;85.21;100535.53;3603229;39;20050;-64
2023/08/30 03:12:20;;;;;;;11.93;8.82;;;;;;;13.96;85.00;100546.94;3603479;39;20058;-65
2023/08/30 03:14:47;;;;;;;10.75;8.88;;;;;;;14.01;85.23;100535.75;3605153;39;20416;-64
2023/08/30 03:17:12;;;;;;;11.73;8.68;;;;;;;14.02;85.07;100530.22;3601446;39;20111;-65
2023/08/30 03:19:38;;;;;;;11.57;8.75;;;;;;;14.01;85.18;100523.09;3602571;39;20043;-65
2023/08/30 03:22:03;;;;;;;10.18;8.70;;;;;;;14.00;84.95;100525.94;3601817;39;20072;-64
2023/08/30 03:24:29;;;;;;;11.75;9.27;;;;;;;14.08;84.80;100531.56;3604162;39;20058;-64
2023/08/30 03:26:55;;;;;;;9.07;8.10;;;;;;;14.10;84.97;100533.16;3602115;39;20082;-63
2023/08/30 03:29:20;;;;;;;10.20;8.63;;;;;;;14.13;84.80;100526.66;3601803;39;20052;-63
2023/08/30 03:31:47;;;;;;;10.23;8.60;;;;;;;14.06;84.35;100509.22;3605101;39;20090;-63
2023/08/30 03:34:13;;;;;;;12.63;10.20;;;;;;;14.19;84.20;100518.03;3604015;39;20047;-63
2023/08/30 03:36:42;;;;;;;11.85;8.98;;;;;;;14.22;84.30;100515.09;3600839;39;20058;-63
2023/08/30 03:39:08;;;;;;;12.77;10.10;;;;;;;14.24;84.71;100502.31;3600962;39;20054;-64
2023/08/30 03:41:34;;;;;;;11.27;8.73;;;;;;;14.26;84.21;100499.47;3604242;39;20135;-64
2023/08/30 03:43:59;;;;;;;9.48;8.50;;;;;;;14.28;84.23;100492.09;3592980;39;20091;-64
2023/08/30 03:46:25;;;;;;;9.52;8.52;;;;;;;14.30;84.31;100485.59;3602522;39;20071;-64
2023/08/30 03:48:51;;;;;;;11.38;8.50;;;;;;;14.32;84.16;100477.31;3594075;39;20450;-63
2023/08/30 03:51:17;;;;;;;10.18;9.15;;;;;;;14.32;83.99;100469.22;3601846;39;20109;-64
2023/08/30 03:53:43;;;;;;;10.50;9.02;;;;;;;14.33;84.50;100462.81;3603011;39;20063;-64
2023/08/30 03:56:08;;;;;;;10.18;9.18;;;;;;;14.35;84.52;100466.25;3603983;39;20055;-64
2023/08/30 03:58:34;;;;;;;12.02;9.30;;;;;;;14.38;84.71;100455.19;3604977;39;20171;-64
2023/08/30 04:01:00;;;;;;;10.45;9.30;;;;;;;14.36;84.11;100449.03;3604855;39;20083;-64
2023/08/30 04:03:25;;;;;;;11.63;9.80;;;;;;;14.35;84.59;100445.47;3602944;39;20303;-65
2023/08/30 04:05:59;;;;;;;10.70;9.60;;;;;;;14.15;84.05;100406.59;3603281;39;20058;-65
2023/08/30 04:08:24;;;;;;;;;;;;;;;14.31;84.48;100437.78;3602255;39;20060;-63
2023/08/30 04:10:53;;;;;;;10.55;9.38;;;;;;;14.28;84.43;100432.63;3604780;39;20246;-63
2023/08/30 04:13:19;;;;;;;12.93;9.88;;;;;;;14.26;84.63;100424.63;3601286;39;20043;-65
2023/08/30 04:15:44;;;;;;;11.90;9.70;;;;;;;13.74;84.40;100341.63;3602179;39;20095;-64
2023/08/30 04:18:10;;;;;;;14.15;9.95;;;;;;;14.19;84.94;100430.69;3604488;39;20047;-65
2023/08/30 04:20:36;;;;;;;11.27;9.43;;;;;;;14.20;84.50;100440.50;3603019;39;20778;-63
2023/08/30 04:23:02;;;;;;;10.57;9.32;;;;;;;14.17;84.72;100447.84;3603841;39;20059;-63
2023/08/30 04:25:30;;;;;;;13.45;9.65;;;;;;;14.15;85.05;100444.44;3603613;39;20095;-63
2023/08/30 04:27:56;;;;;;;11.30;9.65;;;;;;;13.70;85.28;100358.09;3602688;39;20530;-63
2023/08/30 04:30:22;;;;;;;13.75;9.73;;;;;;;14.23;84.90;100435.69;3603862;39;20050;-65
2023/08/30 04:32:48;;;;;;;11.13;10.02;;;;;;;14.24;85.33;100425.72;3605339;39;20059;-64
2023/08/30 04:35:13;;;;;;;11.05;9.88;;;;;;;14.27;85.18;100433.59;3601803;39;20055;-64
2023/08/30 04:37:39;;;;;;;12.35;9.90;;;;;;;14.24;84.66;100420.31;3604351;39;20103;-64
2023/08/30 04:40:09;;;;;;;10.48;9.38;;;;;;;14.31;85.11;100422.41;3595857;39;20062;-63
2023/08/30 04:42:35;;;;;;;12.30;10.30;;;;;;;14.16;85.36;100397.50;3600213;39;20103;-66
2023/08/30 04:45:02;;;;;;;11.45;9.50;;;;;;;14.35;84.80;100420.28;3602138;39;20050;-65
2023/08/30 04:47:30;;;;;;;11.00;9.55;;;;;;;14.38;84.43;100428.16;3604703;39;20067;-65
2023/08/30 04:49:56;;;;;;;11.77;9.40;;;;;;;14.44;85.25;100411.41;3601295;39;20436;-65
2023/08/30 04:52:22;;;;;;;10.52;9.43;;;;;;;14.46;84.25;100409.44;3601492;39;20122;-64
2023/08/30 04:54:48;;;;;;;9.85;8.73;;;;;;;14.49;84.33;100414.56;3603389;39;20352;-64
2023/08/30 04:57:17;;;;;;;10.43;9.32;;;;;;;14.51;83.69;100412.63;3602753;39;20183;-65
2023/08/30 04:59:44;;;;;;;10.93;9.63;;;;;;;14.50;83.95;100405.47;3604735;39;20093;-65
2023/08/30 05:02:11;;;;;;;10.27;9.27;;;;;;;14.58;83.90;100407.53;3600980;39;20063;-64
2023/08/30 05:04:37;;;;;;;11.10;9.32;;;;;;;14.53;83.38;100391.72;3603103;39;20459;-65
2023/08/30 05:07:04;;;;;;;11.02;9.40;;;;;;;14.66;83.18;100398.78;3602864;39;20319;-64
2023/08/30 05:09:31;;;;;;;10.77;8.60;;;;;;;14.70;83.76;100401.09;3601423;39;20066;-65
2023/08/30 05:11:56;;;;;;;10.52;9.45;;;;;;;14.74;83.52;100402.53;3603288;39;20327;-64
2023/08/30 05:14:22;;;;;;;11.32;8.88;;;;;;;14.82;83.28;100399.19;3602797;39;20306;-64
2023/08/30 05:16:49;;;;;;;10.38;8.88;;;;;;;14.85;82.77;100402.47;3603872;39;20124;-64
2023/08/30 05:19:16;;;;;;;9.48;8.57;;;;;;;14.88;82.63;100393.25;3602966;39;20053;-65
2023/08/30 05:21:43;;;;;;;10.05;9.02;;;;;;;14.89;82.97;100388.69;3594265;39;20059;-64
2023/08/30 05:24:08;;;;;;;11.65;8.98;;;;;;;14.87;82.87;100377.97;3602873;39;20047;-65
2023/08/30 05:26:34;;;;;;;10.50;8.45;;;;;;;14.90;83.19;100380.41;3603190;39;20061;-65
2023/08/30 05:29:00;;;;;;;11.55;9.30;;;;;;;14.82;83.28;100366.72;3603857;39;20063;-66
2023/08/30 05:31:25;;;;;;;12.05;9.13;;;;;;;14.96;83.22;100393.41;3603750;39;20074;-63
2023/08/30 05:33:51;;;;;;;12.45;9.63;;;;;;;15.03;82.62;100391.91;3604426;39;20086;-65
2023/08/30 05:36:18;;;;;;;12.85;9.32;;;;;;;15.03;82.83;100386.50;3603129;39;20051;-63
2023/08/30 05:38:43;;;;;;;10.00;9.00;;;;;;;15.02;82.15;100379.34;3602098;39;20133;-65
2023/08/30 05:41:09;;;;;;;11.15;9.15;;;;;;;15.07;82.99;100387.94;3604295;39;20067;-66
2023/08/30 05:43:35;;;;;;;11.38;9.23;;;;;;;15.08;82.40;100372.53;3603770;39;20443;-65
2023/08/30 05:46:02;;;;;;;11.07;9.23;;;;;;;15.13;82.29;100369.41;3600288;39;20111;-65
2023/08/30 05:48:29;;;;;;;10.55;9.00;;;;;;;15.16;82.83;100378.16;3602790;39;20057;-65
2023/08/30 05:50:54;;;;;;;12.40;9.02;;;;;;;15.19;82.08;100374.28;3603959;39;20507;-63
2023/08/30 05:53:20;;;;;;;10.70;9.20;;;;;;;15.23;82.39;100364.94;3599801;39;20346;-66
2023/08/30 05:55:46;;;;;;;11.90;9.18;;;;;;;15.26;82.72;100360.09;3602344;39;20410;-66
2023/08/30 05:58:11;;;;;;;9.80;8.77;;;;;;;15.31;82.72;100363.22;3602163;39;20051;-65
2023/08/30 06:00:37;;;;;;;11.23;8.57;;;;;;;15.35;81.43;100363.84;3601694;39;20318;-65
2023/08/30 06:03:04;;;;;;;9.77;8.77;;;;;;;15.31;82.19;100348.84;3600826;39;20059;-65
2023/08/30 06:05:29;;;;;;;10.93;8.45;;;;;;;15.41;81.34;100367.81;3601770;39;20059;-65
2023/08/30 06:07:55;;;;;;;10.52;8.48;;;;;;;15.41;81.37;100355.13;3602116;39;20054;-66
2023/08/30 06:10:21;;;;;;;10.05;8.38;;;;;;;15.45;80.59;100364.72;3602057;39;20055;-65
2023/08/30 06:12:46;;;;;;;9.95;8.07;;;;;;;15.44;81.23;100362.97;3602614;39;20051;-65
2023/08/30 06:15:12;;;;;;;9.45;8.48;;;;;;;15.42;81.17;100362.28;3603988;39;20089;-65
2023/08/30 06:17:37;;;;;;;10.63;8.43;;;;;;;15.42;81.18;100353.31;3601679;39;20051;-65
2023/08/30 06:20:04;;;;;;;11.23;8.70;;;;;;;15.44;81.71;100357.56;3603676;39;20067;-65
2023/08/30 06:22:30;;;;;;;9.30;8.30;;;;;;;15.44;81.63;100357.56;3602665;39;20090;-65
2023/08/30 06:24:55;;;;;;;11.57;8.52;;;;;;;15.43;81.01;100349.59;3602096;39;20386;-65
2023/08/30 06:27:23;;;;;;;9.88;8.10;;;;;;;15.44;81.76;100344.03;3601194;39;20685;-65
2023/08/30 06:29:49;;;;;;;13.00;8.77;;;;;;;14.47;81.61;100183.97;3600549;39;20853;-65
2023/08/30 06:32:14;;;;;;;12.77;8.27;;;;;;;15.42;81.37;100327.06;3603809;39;20055;-65
2023/08/30 06:34:40;;;;;;;10.93;8.85;;;;;;;15.44;81.97;100345.88;3603481;39;20055;-65
2023/08/30 06:37:05;;;;;;;10.73;8.35;;;;;;;15.50;81.34;100357.00;3602535;39;20302;-65
2023/08/30 06:39:36;;;;;;;12.13;8.82;;;;;;;15.53;82.29;100356.75;3605471;39;20063;-64
2023/08/30 06:42:03;;;;;;;11.65;9.00;;;;;;;15.59;83.17;100376.16;3601862;39;20059;-65
2023/08/30 06:44:29;;;;;;;11.15;9.25;;;;;;;15.61;83.31;100364.19;3602877;39;20051;-66
2023/08/30 06:46:56;;;;;;;9.60;8.60;;;;;;;15.62;83.25;100370.47;3600422;39;20418;-64
2023/08/30 06:49:23;;;;;;;11.23;9.32;;;;;;;15.55;83.08;100349.34;3602673;39;20318;-64
2023/08/30 06:51:49;;;;;;;10.70;8.80;;;;;;;15.52;83.83;100359.59;3607348;39;20293;-64
2023/08/30 06:54:14;;;;;;;12.40;9.63;;;;;;;15.48;84.75;100367.16;3601889;39;20055;-64
2023/08/30 06:56:40;;;;;;;13.60;9.90;;;;;;;15.46;85.95;100368.28;3599499;39;20680;-65
2023/08/30 06:59:05;;;;;;;13.07;10.13;;;;;;;15.43;86.40;100365.84;3603145;39;20067;-64
2023/08/30 07:01:31;;;;;;;12.25;9.60;;;;;;;15.35;87.29;100368.38;3603178;39;20094;-65
2023/08/30 07:03:57;;;;;;;12.52;10.45;;;;;;;15.26;88.53;100370.06;3594439;39;20059;-66
2023/08/30 07:06:23;;;;;;;12.90;10.38;;;;;;;15.16;89.05;100352.91;3605292;39;20058;-66
2023/08/30 07:08:48;;;;;;;16.33;10.63;;;;;;;15.12;90.30;100356.88;3609235;39;20297;-66
2023/08/30 07:11:14;;;;;;;11.82;10.63;;;;;;;15.08;91.01;100345.47;3604206;39;20071;-66
2023/08/30 07:13:39;;;;;;;14.85;11.10;;;;;;;15.01;91.57;100338.88;3605865;39;20058;-66
2023/08/30 07:16:05;;;;;;;17.48;11.13;;;;;;;14.94;92.73;100322.34;3606397;39;20063;-67
2023/08/30 07:18:31;;;;;;;15.52;10.98;;;;;;;14.89;93.62;100321.03;3604826;39;20496;-66
2023/08/30 07:20:57;;;;;;;12.63;9.82;;;;;;;14.86;93.79;100314.03;3606214;39;20409;-66
2023/08/30 07:23:22;;;;;;;11.95;9.13;;;;;;;14.79;93.59;100318.28;3611044;39;20273;-66
2023/08/30 07:25:48;;;;;;;12.32;9.45;;;;;;;14.70;95.23;100308.25;3608220;39;20063;-66
2023/08/30 07:28:13;;;;;;;11.27;9.52;;;;;;;14.67;95.68;100306.66;3607881;39;20410;-65
2023/08/30 07:30:39;;;;;;;13.65;8.82;;;;;;;14.66;96.03;100314.94;3605017;39;20046;-65
2023/08/30 07:33:05;;;;;;;11.80;9.15;;;;;;;14.65;96.30;100315.91;3608570;39;20067;-65
2023/08/30 07:35:33;;;;;;;10.00;8.20;;;;;;;14.61;96.16;100315.31;3606254;39;20051;-64
2023/08/30 07:37:59;;;;;;;10.35;8.55;;;;;;;14.58;96.50;100308.31;3606545;39;20085;-65
2023/08/30 07:40:26;;;;;;;12.63;8.65;;;;;;;14.59;97.25;100306.50;3607116;39;20578;-65
2023/08/30 07:42:52;;;;;;;10.57;8.40;;;;;;;14.62;97.59;100296.25;3606463;39;20106;-65
2023/08/30 07:45:18;;;;;;;9.95;8.13;;;;;;;14.65;98.04;100303.22;3608789;39;20423;-65
2023/08/30 07:47:44;;;;;;;9.35;7.85;;;;;;;14.67;98.55;100303.09;3606477;39;20055;-65
2023/08/30 07:50:09;;;;;;;9.82;7.97;;;;;;;14.67;97.69;100303.09;3606147;39;20059;-65
2023/08/30 07:52:35;;;;;;;10.82;8.23;;;;;;;14.71;98.74;100291.00;3608857;39;20325;-65
2023/08/30 07:55:01;;;;;;;9.40;7.45;;;;;;;14.74;98.24;100293.47;3607787;39;20066;-66
2023/08/30 07:57:27;;;;;;;10.43;7.97;;;;;;;14.47;98.69;100257.00;3608058;39;20090;-65
2023/08/30 07:59:53;;;;;;;9.98;7.85;;;;;;;14.76;98.57;100296.91;3607692;39;20271;-66
2023/08/30 08:02:18;;;;;;;8.23;7.13;;;;;;;14.73;98.54;100297.16;3605108;39;20063;-65
2023/08/30 08:04:44;;;;;;;7.43;6.72;;;;;;;14.70;98.03;100298.28;3609309;39;20428;-65
2023/08/30 08:07:10;;;;;;;7.95;7.18;;;;;;;14.71;99.00;100293.72;3604006;39;20405;-65
2023/08/30 08:09:37;;;;;;;5.60;4.63;;;;;;;14.79;98.06;100296.63;3605223;39;20055;-65
2023/08/30 08:12:04;;;;;;;7.18;6.47;;;;;;;14.79;98.40;100302.03;3596564;39;20047;-64
2023/08/30 08:14:29;;;;;;;6.55;5.75;;;;;;;14.83;98.28;100309.72;3610105;39;20135;-65
2023/08/30 08:16:55;;;;;;;8.48;6.72;;;;;;;14.78;98.27;100301.19;3605994;39;20434;-65
2023/08/30 08:19:21;;;;;;;7.53;6.47;;;;;;;14.68;99.09;100283.16;3610157;39;20118;-65
2023/08/30 08:21:47;;;;;;;6.97;6.22;;;;;;;14.74;99.59;100290.75;3608621;39;20047;-65
2023/08/30 08:24:16;;;;;;;8.77;6.80;;;;;;;14.81;98.92;100302.75;3606479;39;20051;-66
2023/08/30 08:26:42;;;;;;;7.20;6.50;;;;;;;14.84;100.00;100310.59;3604130;39;20047;-64
2023/08/30 08:29:07;;;;;;;8.85;6.72;;;;;;;14.81;100.00;100305.44;3604737;39;20053;-66
2023/08/30 08:31:33;;;;;;;6.68;5.32;;;;;;;14.88;99.48;100306.66;3604181;39;20074;-66
2023/08/30 08:34:13;;;;;;;7.03;5.78;;;;;;;14.91;99.48;100308.22;3607514;39;20388;-65
2023/08/30 08:36:41;;;;;;;6.57;5.72;;;;;;;14.91;99.29;100311.78;3606551;39;20334;-65
2023/08/30 08:39:09;;;;;;;8.65;5.78;;;;;;;14.50;98.93;100243.19;3608581;39;20186;-65
2023/08/30 08:41:43;;;;;;;5.88;5.28;;;;;;;14.92;99.61;100308.06;3606454;39;20043;-65
2023/08/30 08:44:10;;;;;;;5.90;5.30;;;;;;;14.99;99.84;100300.25;3604976;39;20051;-66
2023/08/30 08:46:38;;;;;;;6.72;4.93;;;;;;;14.87;99.66;100280.56;3605127;39;20062;-66
2023/08/30 08:49:15;;;;;;;5.60;5.10;;;;;;;14.88;100.00;100266.06;3608319;39;20055;-65
2023/08/30 08:51:43;;;;;;;7.40;4.72;;;;;;;15.08;100.00;100303.00;3605966;39;20360;-65
2023/08/30 08:54:10;;;;;;;6.07;4.75;;;;;;;15.12;99.89;100308.16;3606254;39;20056;-65
2023/08/30 08:56:39;;;;;;;5.30;4.80;;;;;;;14.81;99.82;100252.22;3606107;39;20058;-66
2023/08/30 08:59:07;;;;;;;4.97;4.57;;;;;;;15.20;99.26;100305.63;3607162;39;20054;-66
2023/08/30 09:01:35;;;;;;;5.45;4.60;;;;;;;15.18;98.91;100310.31;3608145;39;20107;-67
2023/08/30 09:04:07;;;;;;;4.35;4.00;;;;;;;15.13;99.82;100296.31;3606575;39;20414;-66
2023/08/30 09:06:34;;;;;;;5.10;4.30;;;;;;;15.30;100.00;100310.06;3607713;39;20408;-66
2023/08/30 09:09:03;;;;;;;6.95;4.80;;;;;;;15.35;99.30;100298.84;3607316;39;20109;-66
2023/08/30 09:11:29;;;;;;;5.10;4.60;;;;;;;15.43;99.72;100298.97;3607520;39;20051;-66
2023/08/30 09:13:55;;;;;;;6.07;4.72;;;;;;;15.49;99.59;100297.56;3602677;39;20062;-66
2023/08/30 09:16:21;;;;;;;5.30;4.80;;;;;;;15.56;99.91;100296.88;3608426;39;20050;-66
2023/08/30 09:19:04;;;;;;;5.43;4.90;;;;;;;15.52;100.00;100256.66;3604578;39;20283;-65
2023/08/30 09:21:34;;;;;;;5.22;4.65;;;;;;;15.84;99.75;100288.94;3605171;39;20047;-65
2023/08/30 09:24:05;;;;;;;5.63;5.13;;;;;;;15.91;99.10;100286.53;3604873;39;20087;-66
2023/08/30 09:26:34;;;;;;;5.40;4.90;;;;;;;15.95;98.82;100290.66;3606137;39;20313;-65
2023/08/30 09:29:08;;;;;;;4.68;4.28;;;;;;;16.00;98.64;100294.66;3604779;39;20418;-66
2023/08/30 09:31:35;;;;;;;4.80;4.40;;;;;;;16.02;97.90;100281.81;3602984;39;20091;-66
2023/08/30 09:34:02;;;;;;;4.65;4.25;;;;;;;16.14;98.05;100295.22;3603084;39;20120;-66
2023/08/30 09:36:41;;;;;;;4.97;4.55;;;;;;;16.12;96.64;100299.94;3604771;39;20647;-67
2023/08/30 09:39:10;;;;;;;5.47;4.50;;;;;;;16.20;96.11;100305.47;3607247;39;20337;-66
2023/08/30 09:41:57;;;;;;;4.75;4.25;;;;;;;16.24;96.26;100302.38;3605191;39;20046;-65
2023/08/30 09:44:24;;;;;;;5.05;4.55;;;;;;;16.31;96.64;100307.22;3595561;39;20141;-65
2023/08/30 09:46:55;;;;;;;5.28;4.78;;;;;;;16.39;96.51;100293.75;3603552;39;20094;-65
2023/08/30 09:49:25;;;;;;;5.18;4.68;;;;;;;16.53;96.91;100301.47;3604944;39;20283;-65
2023/08/30 09:51:54;;;;;;;5.90;5.40;;;;;;;16.73;97.85;100304.97;3605680;39;20281;-66
2023/08/30 09:54:23;;;;;;;5.80;5.10;;;;;;;17.03;97.31;100300.31;3597998;39;20086;-66
2023/08/30 09:56:52;;;;;;;6.13;5.53;;;;;;;17.22;94.73;100296.66;3599667;39;20073;-65
2023/08/30 09:59:18;;;;;;;6.65;5.13;;;;;;;17.27;92.07;100286.19;3603838;39;20047;-65
2023/08/30 10:01:52;;;;;;;5.38;4.88;;;;;;;17.53;91.75;100302.63;3602280;39;20073;-65
2023/08/30 10:04:20;;;;;;;;;;;;;;;17.18;89.89;100236.34;3604569;39;20060;-65
2023/08/30 10:06:47;;;;;;;6.05;5.53;;;;;;;17.61;89.31;100289.13;3601389;39;20405;-65
2023/08/30 10:09:15;;;;;;;7.35;5.97;;;;;;;17.80;91.52;100286.31;3602723;39;20390;-65
2023/08/30 10:11:41;;;;;;;5.80;5.40;;;;;;;18.16;89.87;100280.84;3605345;39;20055;-65
2023/08/30 10:14:08;;;;;;;5.32;4.85;;;;;;;18.44;85.26;100284.31;3604658;39;20126;-65
2023/08/30 10:16:44;;;;;;;5.40;4.78;;;;;;;18.76;83.80;100283.69;3606951;39;20063;-66
2023/08/30 10:19:17;;;;;;;5.20;4.80;;;;;;;19.12;81.09;100279.94;3601278;39;20055;-65
2023/08/30 10:21:51;;;;;;;5.47;5.07;;;;;;;19.25;81.34;100283.94;3605255;39;20270;-65
2023/08/30 10:24:22;;;;;;;5.10;4.70;;;;;;;19.41;80.15;100272.25;3596880;39;20043;-64
2023/08/30 10:26:49;;;;;;;5.32;4.85;;;;;;;19.79;80.71;100277.28;3600955;39;20071;-65
2023/08/30 10:29:18;;;;;;;5.18;4.68;;;;;;;20.09;77.95;100275.78;3605494;39;20050;-64
2023/08/30 10:31:43;;;;;;;5.32;4.88;;;;;;;20.24;75.33;100270.50;3605973;39;20053;-64
2023/08/30 10:34:17;;;;;;;5.57;4.45;;;;;;;20.11;73.81;100274.59;3604959;39;20043;-64
2023/08/30 10:36:44;;;;;;;4.90;4.50;;;;;;;20.17;75.04;100273.94;3601540;39;20124;-64
2023/08/30 10:39:14;;;;;;;5.00;4.50;;;;;;;20.40;74.15;100279.53;3601075;39;20053;-65
2023/08/30 10:41:57;;;;;;;5.43;4.93;;;;;;;20.66;72.84;100277.66;3603954;39;20054;-64
2023/08/30 10:44:23;;;;;;;4.70;4.30;;;;;;;20.84;71.42;100270.13;3603305;39;20063;-66
2023/08/30 10:46:55;;;;;;;5.18;4.78;;;;;;;20.90;71.45;100276.72;3604311;39;20051;-64
2023/08/30 10:49:22;;;;;;;4.82;4.43;;;;;;;21.05;73.25;100275.81;3603914;39;20059;-65
2023/08/30 10:51:58;;;;;;;4.47;4.07;;;;;;;21.35;67.72;100270.63;3605580;39;20071;-64
2023/08/30 10:54:25;;;;;;;4.40;3.80;;;;;;;21.30;65.77;100256.59;3604922;39;20301;-65
2023/08/30 10:57:00;;;;;;;4.20;3.80;;;;;;;21.45;67.56;100265.78;3602142;39;20123;-66
2023/08/30 10:59:29;;;;;;;4.75;4.28;;;;;;;21.52;69.06;100268.66;3603303;39;20047;-65
2023/08/30 11:01:55;;;;;;;4.28;3.90;;;;;;;21.50;66.76;100268.84;3603980;39;20098;-66
2023/08/30 11:04:22;;;;;;;6.90;3.80;;;;;;;21.52;67.32;100264.03;3603191;39;20091;-65
2023/08/30 11:06:51;;;;;;;4.50;4.10;;;;;;;21.06;65.80;100181.03;3601942;39;20059;-65
2023/08/30 11:09:22;;;;;;;4.97;4.57;;;;;;;21.51;67.92;100267.78;3592169;39;20051;-65
2023/08/30 11:11:50;;;;;;;3.63;3.28;;;;;;;21.44;67.08;100266.81;3601511;39;20070;-65
2023/08/30 11:14:18;;;;;;;3.22;2.92;;;;;;;21.65;66.05;100263.44;3602484;39;20055;-66
2023/08/30 11:16:45;;;;;;;4.68;3.10;;;;;;;21.86;62.94;100273.72;3605543;39;20066;-65
2023/08/30 11:19:12;;;;;;;3.08;2.83;;;;;;;21.60;62.67;100254.06;3605048;39;20254;-66
2023/08/30 11:21:45;;;;;;;3.38;2.33;;;;;;;21.90;61.23;100266.84;3606475;39;20056;-65
2023/08/30 11:24:12;;;;;;;;;;;;;;;22.23;61.51;100269.34;3604692;39;20066;-66